Eufaula, Oklahoma
Current Conditions -  °F | °C
As of 12:15 AM on Thursday 29 Jan 2015 (Local Time) from KGZL Reporting Station
Clear Clear  
Wind Chill: 63°   Ceiling: Unl
Heat Index: 63°   Visibility: 10mi
Dew Point: 36°   Wind: 8mph
Humidity: 37%   Direction: 250°WSW
Pressure: 29.99"   Gusts: NA
Location:  35.29°N, 95.58°W
Report Text: KGZL 290615Z AUTO 25007KT 10SM CLR 17/02 A2999 RMK AO2
Loading
Personal Weather Stations






























Interactive Weather Map New forecast layout! Learn more

10-Day Weather Forecast

Advertisements
Track Severe Weather on mobile